Rockland, MI (49960)

3:28 PM EDT on September 01, 2014 (GMT -0400)
RAWS KENTON MI US | Change Station
CLOSE
Current Station
Personal Weather Station
Location: Nisula, MI
Elevation: 1262 ft
Nearby Weather Stations

Elev 1262 ft 46.61 °N, 88.91 °W | Updated 32 minutes ago

Overcast
Overcast
65 °F
Feels Like 65 °F
N
2
Wind Variable Wind from West
Gusts 6.0 mph

Today
High -- | Low -- °F
--% Chance of Precip.
Yesterday
High -- | Low -- °F
Precip. -- in
7:16 AM 8:35 PM
Waxing Crescent, 43% visible
Pressure 29.67 in
Visibility 10.0 miles
Clouds Scattered Clouds 1600 ft
Mostly Cloudy 4100 ft
Overcast 6500 ft
Dew Point 63 °F
Humidity 92%
Rainfall 0.23 in
Snow Depth Not available.
UV 2 out of 12
Pollen 3.00 out of 12
Air Quality Not available.
Flu Activity Not available.
METAR KLNL 011915Z AUTO 00000KT 10SM SCT016 BKN041 OVC065 17/16 A2967 RMK AO2 T01710158

More Conditions Fewer Conditions

Pressure 29.67 in
Visibility 10.0 miles
Clouds Scattered Clouds 1600 ft
Mostly Cloudy 4100 ft
Overcast 6500 ft
Dew Point 63 °F
Humidity 92%
Rainfall 0.23 in
Snow Depth Not available.
UV 2 out of 12
Pollen 3.00 out of 12
Air Quality Not available.
Flu Activity Not available.
METAR KLNL 011915Z AUTO 00000KT 10SM SCT016 BKN041 OVC065 17/16 A2967 RMK AO2 T01710158

More Conditions Fewer Conditions

10-Day Weather Forecast

Almanac

Astronomy

Sep. 01, 2014 Rise Set
Actual Time 7:16 AM EDT 8:35 PM EDT
Civil Twilight 6:45 AM EDT 9:07 PM EDT
Nautical Twilight 6:07 AM EDT 9:44 PM EDT
Astronomical Twilight 5:26 AM EDT 10:25 PM EDT
Moon 2:27 PM EDT No Moon Set
Length of Visible Light 14h 22m
Length of Day
13h 19m
Tomorrow will be 3m 12s shorter.
Waxing Crescent, 43% of the Moon is Illuminated
Today
Waxing Crescent
Sep 2
First Quarter
Sep 8
Full
Sep 15
Last Quarter
Sep 24
New

Today's Extremes

State Highs State Lows

Community

WunderPhotos

Upload Photos

1,749,378 photos uploaded!

WunderBlogs® & News

Nearby

Snow Depth

Station Depth Elevation
No new snow has been reported.

Earthquake Activity

City Distance Mag. Time & Date
No recent earthquake activity has been reported nearby.
Minimum magnitude displayed is 2.5.

Coastal Water Temperatures

Place Temperature
No Stations Reporting

Nearby Weather Stations